Time;durP1;ratioP1;P1;durP2;ratioP2;P2;SDS_P1;SDS_P2;PMS_P1;PMS_P2;Temp;Humidity;BMP_temperature;BMP_pressure;BME280_temperature;BME280_humidity;BME280_pressure;Samples;Min_cycle;Max_cycle;Signal;HPM_P1;HPM_P2
2022/12/21 00:02:10;;;;;;;34.30;13.90;;;;;;;3.24;92.38;99365.73;106053;1287;72749;-66
2022/12/21 00:04:58;;;;;;;41.90;17.60;;;;;;;3.26;92.30;99372.27;106045;1287;66913;-67
2022/12/21 00:07:47;;;;;;;41.20;16.90;;;;;;;3.26;92.07;99376.12;106042;1284;72487;-65
2022/12/21 00:10:35;;;;;;;37.60;16.40;;;;;;;3.27;91.98;99375.19;106054;1288;57228;-65
2022/12/21 00:13:23;;;;;;;34.30;14.70;;;;;;;3.27;91.83;99373.11;106058;1292;60339;-66
2022/12/21 00:16:20;;;;;;;39.00;16.20;;;;;;;3.27;91.89;99366.95;106039;1287;73101;-66
2022/12/21 00:19:14;;;;;;;37.60;16.00;;;;;;;3.25;91.64;99363.92;105937;1290;68949;-68
2022/12/21 00:22:02;;;;;;;36.10;14.40;;;;;;;3.26;91.76;99366.50;105780;1291;72434;-64
2022/12/21 00:24:51;;;;;;;37.80;16.30;;;;;;;3.25;91.71;99364.78;106058;1291;57307;-65
2022/12/21 00:27:39;;;;;;;41.80;17.40;;;;;;;3.24;91.58;99363.60;106057;1290;60034;-65
2022/12/21 00:30:27;;;;;;;33.60;15.00;;;;;;;3.26;91.70;99358.07;106047;1282;73028;-66
2022/12/21 00:33:18;;;;;;;36.00;15.80;;;;;;;3.25;91.67;99348.66;105964;1284;67845;-66
2022/12/21 00:36:10;;;;;;;33.90;13.40;;;;;;;3.25;91.53;99348.45;106059;1284;72574;-66
2022/12/21 00:38:58;;;;;;;34.80;15.20;;;;;;;3.24;91.46;99350.13;105760;1292;59605;-67
2022/12/21 00:41:48;;;;;;;33.30;15.00;;;;;;;3.23;91.43;99351.03;105785;1292;58070;-67
2022/12/21 00:44:36;;;;;;;35.90;14.60;;;;;;;3.24;91.44;99344.87;105796;1292;73010;-67
2022/12/21 00:47:24;;;;;;;36.00;15.20;;;;;;;3.22;91.40;99346.17;105931;1291;66246;-66
2022/12/21 00:50:12;;;;;;;34.70;15.70;;;;;;;3.24;91.50;99344.85;105784;1292;71455;-66
2022/12/21 00:53:01;;;;;;;37.70;16.40;;;;;;;3.24;91.30;99344.53;105880;1290;57177;-67
2022/12/21 00:55:57;;;;;;;38.70;17.20;;;;;;;3.23;91.56;99348.08;105846;1292;61174;-66
2022/12/21 00:58:47;;;;;;;37.60;16.70;;;;;;;3.22;91.50;99339.17;105592;1286;72999;-67
2022/12/21 01:01:35;;;;;;;35.40;15.20;;;;;;;3.22;91.58;99334.96;105497;1295;67790;-66
2022/12/21 01:04:24;;;;;;;34.30;14.90;;;;;;;3.24;91.51;99333.98;105616;1294;73762;-66
2022/12/21 01:07:12;;;;;;;37.50;17.00;;;;;;;3.23;91.59;99333.16;105588;1293;57421;-68
2022/12/21 01:10:03;;;;;;;39.40;16.10;;;;;;;3.22;91.65;99331.98;105656;1293;58773;-66
2022/12/21 01:12:53;;;;;;;36.40;16.10;;;;;;;3.22;92.06;99330.27;105558;1298;73209;-67
2022/12/21 01:15:44;;;;;;;32.10;14.70;;;;;;;3.21;92.43;99326.30;105528;1297;67801;-67
2022/12/21 01:18:33;;;;;;;38.50;15.90;;;;;;;3.22;92.16;99327.64;105543;1297;72396;-66
2022/12/21 01:21:27;;;;;;;34.00;14.90;;;;;;;3.22;92.39;99320.59;105606;1294;57280;-66
2022/12/21 01:24:16;;;;;;;37.40;16.60;;;;;;;3.23;92.58;99311.80;105456;1294;59085;-67
2022/12/21 01:27:05;;;;;;;39.40;16.60;;;;;;;3.21;92.98;99309.93;105580;1289;73922;-67
2022/12/21 01:29:53;;;;;;;37.70;15.50;;;;;;;3.20;93.51;99307.09;105776;1287;66633;-65
2022/12/21 01:32:41;;;;;;;39.10;15.50;;;;;;;3.18;93.89;99303.15;105899;1294;73860;-68
2022/12/21 01:35:30;;;;;;;35.80;14.80;;;;;;;3.15;94.35;99309.46;105897;1292;57358;-65
2022/12/21 01:38:20;;;;;;;40.20;17.40;;;;;;;3.13;94.96;99314.11;105998;1291;61182;-66
2022/12/21 01:41:22;;;;;;;34.20;16.00;;;;;;;3.12;95.19;99308.09;105845;1293;72987;-65
2022/12/21 01:44:57;;;;;;;37.70;15.20;;;;;;;3.09;95.78;99304.71;105940;1284;66430;-63
2022/12/21 01:48:05;;;;;;;39.50;17.30;;;;;;;3.04;96.43;99300.48;105959;1292;73728;-69
2022/12/21 01:51:00;;;;;;;36.10;15.10;;;;;;;3.00;97.10;99304.03;105877;1284;57279;-68
2022/12/21 01:54:20;;;;;;;39.20;16.30;;;;;;;2.96;97.63;99303.17;105822;1291;61418;-65
2022/12/21 01:57:12;;;;;;;36.50;15.70;;;;;;;2.92;98.11;99307.28;105773;1287;72385;-66
2022/12/21 02:00:03;;;;;;;42.30;15.80;;;;;;;2.89;98.51;99309.55;105904;1290;66814;-66
2022/12/21 02:03:06;;;;;;;35.80;15.70;;;;;;;2.88;98.77;99310.51;105917;1285;70582;-66
2022/12/21 02:06:08;;;;;;;34.70;14.30;;;;;;;2.88;98.80;99312.95;105932;1285;57297;-69
2022/12/21 02:09:00;;;;;;;37.30;15.20;;;;;;;2.84;99.35;99307.37;105799;1291;60257;-64
2022/12/21 02:11:51;;;;;;;41.40;18.60;;;;;;;2.80;99.85;99308.84;105768;1292;73770;-66
2022/12/21 02:14:43;;;;;;;40.40;17.20;;;;;;;2.77;100.00;99307.45;105874;1294;67559;-66
2022/12/21 02:17:56;;;;;;;38.10;15.10;;;;;;;2.75;100.00;99304.95;105945;1292;71016;-67
2022/12/21 02:21:18;;;;;;;37.20;15.70;;;;;;;2.74;100.00;99305.50;105778;1287;59072;-65
2022/12/21 02:25:01;;;;;;;38.10;15.50;;;;;;;2.75;100.00;99295.29;106084;1292;58647;-65
2022/12/21 02:28:55;;;;;;;32.30;13.50;;;;;;;2.77;100.00;99287.82;105947;1288;71096;-65
2022/12/21 02:32:19;;;;;;;30.20;12.90;;;;;;;2.74;100.00;99279.77;105941;1284;66491;-66
2022/12/21 02:35:41;;;;;;;41.90;16.60;;;;;;;2.74;100.00;99282.59;106042;1292;72450;-66
2022/12/21 02:39:38;;;;;;;43.30;19.00;;;;;;;2.73;100.00;99276.11;105111;1294;1002707;-66
2022/12/21 02:46:18;;;;;;;35.50;15.40;;;;;;;2.68;100.00;99266.77;105355;1305;73938;-66
2022/12/21 02:49:18;;;;;;;37.50;15.90;;;;;;;2.69;100.00;99268.86;105335;1300;66274;-65
2022/12/21 02:52:17;;;;;;;32.10;14.40;;;;;;;2.69;100.00;99264.46;105250;1300;73773;-65
2022/12/21 02:55:10;;;;;;;36.10;16.00;;;;;;;2.71;100.00;99272.05;105280;1291;57343;-67
2022/12/21 02:58:18;;;;;;;37.10;15.40;;;;;;;2.73;100.00;99274.91;105271;1301;58788;-67
2022/12/21 03:01:48;;;;;;;39.10;17.30;;;;;;;2.72;100.00;99265.70;105385;1298;71672;-65
2022/12/21 03:05:20;;;;;;;36.10;16.10;;;;;;;2.70;100.00;99265.27;105368;1298;67783;-64
2022/12/21 03:08:38;;;;;;;35.00;15.20;;;;;;;2.67;100.00;99266.13;105427;1297;72803;-68
2022/12/21 03:12:16;;;;;;;35.70;15.40;;;;;;;2.67;100.00;99261.74;105189;1297;57322;-68
2022/12/21 03:15:44;;;;;;;35.10;15.50;;;;;;;2.69;100.00;99262.17;105138;1302;60055;-67
2022/12/21 03:18:56;;;;;;;29.00;14.00;;;;;;;2.69;100.00;99258.52;105227;1300;73073;-68
2022/12/21 03:22:36;;;;;;;35.10;15.30;;;;;;;2.70;100.00;99260.55;105113;1300;67820;-67
2022/12/21 03:25:47;;;;;;;29.80;13.30;;;;;;;2.70;100.00;99258.77;105250;1300;73826;-65
2022/12/21 03:28:40;;;;;;;32.60;14.80;;;;;;;2.73;100.00;99267.00;105276;1292;58782;-67
2022/12/21 03:31:34;;;;;;;31.60;14.50;;;;;;;2.77;100.00;99270.17;104716;1305;58029;-66
2022/12/21 03:34:32;;;;;;;27.40;11.90;;;;;;;2.78;100.00;99267.27;104320;1300;73084;-67
2022/12/21 03:37:30;;;;;;;29.30;13.00;;;;;;;2.80;100.00;99262.44;104065;1309;66517;-65
2022/12/21 03:40:25;;;;;;;29.90;12.50;;;;;;;2.80;100.00;99258.38;104114;1303;74010;-65
2022/12/21 03:43:35;;;;;;;26.50;12.30;;;;;;;2.80;100.00;99252.62;104097;1308;57923;-66
2022/12/21 03:46:40;;;;;;;30.70;13.30;;;;;;;2.79;100.00;99257.23;104339;1308;58791;-67
2022/12/21 03:49:35;;;;;;;31.30;14.30;;;;;;;2.80;100.00;99249.10;104432;1308;71490;-65
2022/12/21 03:52:33;;;;;;;25.40;11.50;;;;;;;2.81;100.00;99249.91;104758;1298;68773;-64
2022/12/21 03:55:30;;;;;;;25.80;11.50;;;;;;;2.84;100.00;99245.88;105288;1300;71042;-64
2022/12/21 03:58:17;;;;;;;32.70;13.40;;;;;;;2.86;100.00;99253.85;104512;1303;1002370;-67
2022/12/21 04:01:17;;;;;;;29.90;13.40;;;;;;;2.87;100.00;99251.13;105410;1300;59285;-66
2022/12/21 04:04:31;;;;;;;29.90;12.40;;;;;;;2.90;100.00;99252.91;105568;1296;74708;-65
2022/12/21 04:07:24;;;;;;;29.10;13.40;;;;;;;2.92;100.00;99254.72;105867;1287;66506;-66
2022/12/21 04:10:16;;;;;;;26.90;12.10;;;;;;;2.94;100.00;99247.40;105846;1294;71366;-66
2022/12/21 04:13:04;;;;;;;32.10;13.60;;;;;;;2.95;100.00;99248.57;105819;1291;58468;-65
2022/12/21 04:16:04;;;;;;;32.00;14.10;;;;;;;2.97;100.00;99246.57;105937;1290;58924;-65
2022/12/21 04:22:00;;;;;;;28.90;11.60;;;;;;;2.99;100.00;99240.66;106060;1284;67647;-67
2022/12/21 04:28:07;;;;;;;39.10;16.20;;;;;;;2.98;100.00;99247.52;106047;1291;57297;-65
2022/12/21 04:31:15;;;;;;;37.90;15.00;;;;;;;2.98;100.00;99241.92;106069;1287;61473;-66
2022/12/21 04:34:02;;;;;;;36.20;15.90;;;;;;;3.00;100.00;99233.41;106040;1287;71981;-65
2022/12/21 04:39:58;;;;;;;38.30;14.40;;;;;;;2.97;100.00;99227.45;106029;1291;73744;-67
2022/12/21 04:42:46;;;;;;;41.80;16.20;;;;;;;2.94;100.00;99228.65;105983;1299;57579;-64
2022/12/21 04:45:34;;;;;;;37.00;15.20;;;;;;;2.96;100.00;99225.60;106048;1283;60057;-65
2022/12/21 04:48:22;;;;;;;44.30;17.50;;;;;;;2.95;100.00;99228.45;106074;1289;72941;-66
2022/12/21 04:51:12;;;;;;;40.30;17.10;;;;;;;2.95;100.00;99229.65;106043;1284;68917;-66
2022/12/21 04:54:03;;;;;;;40.30;15.90;;;;;;;2.95;100.00;99220.90;105925;1291;73741;-66
2022/12/21 04:56:51;;;;;;;39.70;16.30;;;;;;;2.95;100.00;99217.02;105759;1299;59623;-66
2022/12/21 04:59:39;;;;;;;42.10;18.00;;;;;;;2.96;100.00;99214.55;106029;1284;58931;-67
2022/12/21 05:02:28;;;;;;;40.80;16.30;;;;;;;2.96;100.00;99209.77;106039;1291;71422;-65
2022/12/21 05:05:16;;;;;;;37.30;16.30;;;;;;;2.98;100.00;99208.25;106030;1287;67810;-66
2022/12/21 05:08:04;;;;;;;45.00;16.80;;;;;;;3.00;100.00;99208.46;105959;1290;73675;-69
2022/12/21 05:10:52;;;;;;;43.00;17.30;;;;;;;3.03;100.00;99207.63;106023;1292;58834;-68
2022/12/21 05:13:42;;;;;;;39.30;15.10;;;;;;;3.04;100.00;99204.39;106022;1284;59903;-68
2022/12/21 05:16:30;;;;;;;39.10;16.00;;;;;;;3.07;100.00;99205.46;105895;1291;71740;-70
2022/12/21 05:19:18;;;;;;;42.00;17.20;;;;;;;3.10;100.00;99206.02;106003;1287;67750;-70
2022/12/21 05:22:07;;;;;;;37.10;16.20;;;;;;;3.11;100.00;99206.45;105892;1291;72502;-69
2022/12/21 05:24:55;;;;;;;41.20;16.20;;;;;;;3.12;100.00;99201.82;106015;1291;57940;-68
2022/12/21 05:27:43;;;;;;;42.50;16.80;;;;;;;3.14;100.00;99206.08;105894;1284;60184;-69
2022/12/21 05:30:33;;;;;;;41.70;16.80;;;;;;;3.17;100.00;99201.88;106015;1290;73809;-70
2022/12/21 05:33:22;;;;;;;41.40;16.60;;;;;;;3.20;100.00;99194.90;106031;1289;67706;-68
2022/12/21 05:36:14;;;;;;;39.90;17.20;;;;;;;3.21;100.00;99196.91;106001;1284;71282;-70
2022/12/21 05:39:02;;;;;;;38.10;16.90;;;;;;;3.22;100.00;99193.66;105875;1291;59631;-68
2022/12/21 05:41:50;;;;;;;39.30;15.70;;;;;;;3.23;100.00;99194.99;106037;1291;60056;-67
2022/12/21 05:44:38;;;;;;;41.60;16.90;;;;;;;3.24;100.00;99193.71;106016;1289;72028;-67
2022/12/21 05:47:27;;;;;;;43.20;17.00;;;;;;;3.26;100.00;99192.38;105997;1290;67714;-68
2022/12/21 05:50:15;;;;;;;41.90;16.10;;;;;;;3.25;100.00;99198.44;105902;1284;169702;-69
2022/12/21 05:53:03;;;;;;;44.00;17.70;;;;;;;3.25;100.00;99202.08;105880;1284;60647;-67
2022/12/21 05:55:59;;;;;;;44.80;16.70;;;;;;;3.23;100.00;99202.58;106000;1282;60045;-68
2022/12/21 05:58:47;;;;;;;42.50;15.50;;;;;;;3.23;100.00;99197.47;106021;1287;72576;-68
2022/12/21 06:01:36;;;;;;;42.80;16.60;;;;;;;3.22;100.00;99200.02;105906;1290;67720;-68
2022/12/21 06:04:23;;;;;;;48.30;17.40;;;;;;;3.20;100.00;99195.71;105908;1291;72327;-70
2022/12/21 06:07:11;;;;;;;44.10;16.10;;;;;;;3.19;100.00;99200.16;106016;1290;58686;-69
2022/12/21 06:09:59;;;;;;;44.00;18.00;;;;;;;3.19;100.00;99198.80;106028;1291;58990;-67
2022/12/21 06:12:47;;;;;;;46.00;17.30;;;;;;;3.19;100.00;99195.06;105895;1284;72973;-66
2022/12/21 06:15:35;;;;;;;36.60;15.00;;;;;;;3.21;100.00;99195.16;106027;1284;67553;-67
2022/12/21 06:18:24;;;;;;;49.10;17.30;;;;;;;3.20;100.00;99192.41;105912;1291;73845;-67
2022/12/21 06:21:13;;;;;;;41.60;15.40;;;;;;;3.21;100.00;99188.13;105883;1291;58513;-66
2022/12/21 06:24:01;;;;;;;39.30;15.80;;;;;;;3.23;100.00;99189.95;105360;1287;1002363;-68
2022/12/21 06:26:50;;;;;;;47.80;18.50;;;;;;;3.21;100.00;99200.91;106029;1292;71374;-67
2022/12/21 06:29:37;;;;;;;45.00;17.50;;;;;;;3.22;100.00;99209.30;106098;1288;67582;-68
2022/12/21 06:32:25;;;;;;;38.30;15.10;;;;;;;3.20;100.00;99210.25;105949;1291;73743;-70
2022/12/21 06:35:14;;;;;;;47.90;18.00;;;;;;;3.19;100.00;99208.07;106099;1283;57515;-69
2022/12/21 06:38:02;;;;;;;37.30;15.50;;;;;;;3.19;100.00;99209.12;106038;1284;60289;-69
2022/12/21 06:41:01;;;;;;;45.30;18.60;;;;;;;3.19;100.00;99209.13;106034;1292;74278;-70
2022/12/21 06:43:50;;;;;;;38.20;14.70;;;;;;;3.18;100.00;99207.10;105942;1284;67568;-72
2022/12/21 06:46:38;;;;;;;46.90;18.80;;;;;;;3.16;100.00;99209.12;106010;1287;73827;-70
2022/12/21 06:49:26;;;;;;;46.40;17.40;;;;;;;3.15;100.00;99214.08;105994;1284;57594;-70
2022/12/21 06:52:14;;;;;;;45.70;17.10;;;;;;;3.11;100.00;99216.27;106018;1284;61460;-70
2022/12/21 06:55:03;;;;;;;46.20;16.90;;;;;;;3.09;100.00;99218.69;106091;1281;74235;-71
2022/12/21 06:57:51;;;;;;;46.20;17.40;;;;;;;3.06;100.00;99219.56;106089;1291;69332;-71
2022/12/21 07:00:39;;;;;;;48.30;18.50;;;;;;;3.04;100.00;99215.45;106113;1281;72703;-72
2022/12/21 07:03:27;;;;;;;42.90;18.20;;;;;;;3.04;100.00;99218.05;106111;1288;57913;-71
2022/12/21 07:06:19;;;;;;;49.00;18.60;;;;;;;3.03;100.00;99223.21;105962;1291;60113;-70
2022/12/21 07:09:07;;;;;;;44.50;17.40;;;;;;;3.01;100.00;99220.89;106041;1282;74262;-72
2022/12/21 07:11:56;;;;;;;38.90;15.30;;;;;;;3.00;100.00;99223.58;106069;1289;69066;-70
2022/12/21 07:14:44;;;;;;;40.00;15.70;;;;;;;3.01;100.00;99228.63;106070;1281;74013;-71
2022/12/21 07:17:32;;;;;;;46.20;17.70;;;;;;;3.01;100.00;99225.64;106079;1288;58338;-71
2022/12/21 07:20:20;;;;;;;40.20;17.60;;;;;;;3.00;100.00;99224.95;106103;1281;58361;-70
2022/12/21 07:23:08;;;;;;;40.80;16.40;;;;;;;3.01;100.00;99230.38;106133;1288;72849;-68
2022/12/21 07:25:57;;;;;;;42.50;17.10;;;;;;;3.01;100.00;99229.29;106096;1287;67806;-68
2022/12/21 07:28:55;;;;;;;38.70;14.90;;;;;;;3.01;100.00;99224.92;106021;1287;72482;-69
2022/12/21 07:31:43;;;;;;;41.30;17.40;;;;;;;3.00;100.00;99220.77;105987;1291;60358;-70
2022/12/21 07:34:32;;;;;;;46.00;18.80;;;;;;;3.01;100.00;99224.36;106016;1288;58647;-72
2022/12/21 07:37:20;;;;;;;37.60;15.60;;;;;;;3.02;100.00;99226.80;106023;1289;72847;-70
2022/12/21 07:40:09;;;;;;;39.00;14.90;;;;;;;3.07;100.00;99237.73;104416;1291;1002518;-71
2022/12/21 07:42:58;;;;;;;28.70;11.60;;;;;;;3.10;100.00;99241.38;105995;1291;73465;-70
2022/12/21 07:45:59;;;;;;;39.00;15.30;;;;;;;3.11;100.00;99242.20;105917;1292;59464;-70
2022/12/21 07:48:47;;;;;;;38.60;16.70;;;;;;;3.13;100.00;99236.64;106034;1290;60436;-69
2022/12/21 07:51:35;;;;;;;37.20;15.30;;;;;;;3.13;100.00;99236.30;106044;1290;73049;-67
2022/12/21 07:54:23;;;;;;;35.40;16.00;;;;;;;3.14;100.00;99238.34;105991;1291;67893;-67
2022/12/21 07:57:11;;;;;;;35.00;14.90;;;;;;;3.14;100.00;99233.11;106089;1288;72547;-70
2022/12/21 07:59:59;;;;;;;35.70;15.70;;;;;;;3.15;100.00;99235.12;106017;1292;60608;-68
2022/12/21 08:02:50;;;;;;;35.60;15.20;;;;;;;3.16;100.00;99234.02;106087;1281;60748;-69
2022/12/21 08:05:38;;;;;;;34.30;15.50;;;;;;;3.16;100.00;99237.89;106076;1288;73853;-70
2022/12/21 08:08:26;;;;;;;35.00;15.30;;;;;;;3.15;100.00;99239.13;106098;1288;65328;-70
2022/12/21 08:11:18;;;;;;;33.00;14.60;;;;;;;3.14;100.00;99243.45;105914;1292;71040;-69
2022/12/21 08:14:06;;;;;;;30.60;13.30;;;;;;;3.14;100.00;99248.34;105913;1287;59195;-68
2022/12/21 08:16:54;;;;;;;28.50;12.40;;;;;;;3.14;100.00;99245.16;105944;1291;60049;-68
2022/12/21 08:19:42;;;;;;;26.40;10.60;;;;;;;3.15;100.00;99248.27;105994;1290;73108;-70
2022/12/21 08:22:30;;;;;;;33.10;13.40;;;;;;;3.12;100.00;99251.26;106024;1291;67649;-70
2022/12/21 08:25:18;;;;;;;30.00;13.90;;;;;;;3.13;100.00;99247.15;106016;1291;71330;-69
2022/12/21 08:28:06;;;;;;;28.50;13.20;;;;;;;3.12;100.00;99251.29;106047;1289;59245;-69
2022/12/21 08:31:20;;;;;;;30.50;13.40;;;;;;;3.13;100.00;99252.29;106116;1281;60028;-70
2022/12/21 08:34:08;;;;;;;29.70;13.10;;;;;;;3.14;100.00;99251.52;106087;1288;73291;-68
2022/12/21 08:36:56;;;;;;;27.50;12.60;;;;;;;3.16;100.00;99244.91;106104;1288;67712;-69
2022/12/21 08:39:44;;;;;;;20.80;9.40;;;;;;;3.18;100.00;99246.70;106079;1296;71048;-70
2022/12/21 08:42:32;;;;;;;28.50;13.00;;;;;;;3.19;100.00;99248.01;106071;1289;59300;-68
2022/12/21 08:45:21;;;;;;;28.90;11.40;;;;;;;3.22;100.00;99256.08;106118;1287;60066;-68
2022/12/21 08:48:09;;;;;;;28.40;12.70;;;;;;;3.26;100.00;99257.09;105949;1290;74158;-68
2022/12/21 08:50:57;;;;;;;27.40;12.80;;;;;;;3.30;100.00;99260.91;106023;1288;67113;-69
2022/12/21 08:53:45;;;;;;;30.10;12.30;;;;;;;3.34;100.00;99270.83;106072;1297;72194;-69
2022/12/21 08:56:39;;;;;;;24.50;11.30;;;;;;;3.36;100.00;99268.56;106083;1288;60627;-69
2022/12/21 08:59:27;;;;;;;24.50;11.50;;;;;;;3.36;100.00;99266.10;105224;1289;1002924;-71
2022/12/21 09:02:15;;;;;;;28.20;12.50;;;;;;;3.39;100.00;99268.21;105940;1287;72181;-68
2022/12/21 09:05:05;;;;;;;25.60;12.20;;;;;;;3.41;100.00;99264.26;106036;1287;66492;-72
2022/12/21 09:07:53;;;;;;;28.00;13.30;;;;;;;3.44;100.00;99261.98;106011;1291;73576;-73
2022/12/21 09:10:41;;;;;;;26.30;11.60;;;;;;;3.47;100.00;99262.34;106007;1284;58523;-72
2022/12/21 09:13:29;;;;;;;26.70;12.40;;;;;;;3.48;100.00;99259.66;105902;1298;60285;-72
2022/12/21 09:16:23;;;;;;;25.60;12.00;;;;;;;3.52;100.00;99250.08;106023;1284;73852;-72
2022/12/21 09:19:11;;;;;;;25.30;11.70;;;;;;;3.52;100.00;99244.63;105838;1287;67717;-74
2022/12/21 09:21:59;;;;;;;27.90;12.30;;;;;;;3.54;100.00;99246.45;106004;1291;72669;-73
2022/12/21 09:24:47;;;;;;;26.40;11.80;;;;;;;3.53;100.00;99248.92;105911;1298;57603;-73
2022/12/21 09:27:35;;;;;;;28.10;12.80;;;;;;;3.49;100.00;99249.36;105923;1291;60391;-71
2022/12/21 09:30:24;;;;;;;24.70;11.60;;;;;;;3.48;100.00;99250.65;106036;1291;71365;-71
2022/12/21 09:33:12;;;;;;;28.70;12.30;;;;;;;3.41;100.00;99255.99;106001;1284;67839;-73
2022/12/21 09:36:00;;;;;;;29.00;13.10;;;;;;;3.38;100.00;99258.66;106042;1282;71266;-71
2022/12/21 09:38:48;;;;;;;26.80;12.70;;;;;;;3.38;100.00;99256.75;105995;1292;58483;-71
2022/12/21 09:41:59;;;;;;;25.30;10.60;;;;;;;3.36;100.00;99256.51;106024;1289;61513;-71
2022/12/21 09:45:11;;;;;;;26.00;10.70;;;;;;;3.35;100.00;99256.51;105931;1298;71422;-71
2022/12/21 09:48:09;;;;;;;26.70;12.00;;;;;;;3.36;100.00;99248.41;105830;1293;66333;-72
2022/12/21 09:51:32;;;;;;;24.90;10.30;;;;;;;3.36;100.00;99245.93;105914;1291;73684;-71
2022/12/21 09:54:53;;;;;;;23.90;11.60;;;;;;;3.41;100.00;99247.59;105920;1279;59332;-71
2022/12/21 09:57:42;;;;;;;23.50;11.40;;;;;;;3.46;100.00;99245.55;106031;1287;58052;-71
2022/12/21 10:00:33;;;;;;;24.20;11.60;;;;;;;3.51;100.00;99253.80;105903;1291;72004;-74
2022/12/21 10:04:10;;;;;;;24.70;10.10;;;;;;;3.58;100.00;99240.59;105940;1295;67717;-72
2022/12/21 10:07:33;;;;;;;24.00;11.20;;;;;;;3.65;100.00;99232.61;105959;1289;72599;-73
2022/12/21 10:10:48;;;;;;;22.40;10.70;;;;;;;3.69;100.00;99232.20;105932;1296;57687;-71
2022/12/21 10:13:54;;;;;;;24.40;11.10;;;;;;;3.70;100.00;99241.05;105862;1293;61671;-70
2022/12/21 10:17:07;;;;;;;25.70;11.70;;;;;;;3.72;100.00;99250.59;105961;1288;72747;-71
2022/12/21 10:20:54;;;;;;;25.10;12.40;;;;;;;3.78;100.00;99244.80;106085;1289;68133;-71
2022/12/21 10:23:48;;;;;;;24.10;11.90;;;;;;;3.81;100.00;99245.34;106108;1288;71663;-70
2022/12/21 10:26:37;;;;;;;28.50;12.80;;;;;;;3.85;100.00;99246.27;105940;1297;59297;-70
2022/12/21 10:29:51;;;;;;;27.80;13.30;;;;;;;3.91;100.00;99248.17;105874;1288;59024;-71
2022/12/21 10:32:42;;;;;;;26.60;12.20;;;;;;;3.95;99.82;99246.70;105900;1288;72802;-71
2022/12/21 10:35:38;;;;;;;28.80;12.80;;;;;;;3.98;99.94;99249.85;106096;1295;67506;-70
2022/12/21 10:38:32;;;;;;;24.10;11.50;;;;;;;4.00;99.52;99252.73;105919;1284;72413;-69
2022/12/21 10:41:28;;;;;;;25.90;12.10;;;;;;;3.97;98.93;99251.67;106083;1289;58465;-71
2022/12/21 10:44:16;;;;;;;22.00;10.50;;;;;;;3.93;99.19;99251.39;105973;1289;61583;-71
2022/12/21 10:47:17;;;;;;;25.90;12.90;;;;;;;3.92;99.25;99247.44;105959;1290;72880;-69
2022/12/21 10:50:10;;;;;;;24.20;12.10;;;;;;;3.94;99.48;99242.39;105932;1284;67875;-69
2022/12/21 10:53:18;;;;;;;25.00;11.20;;;;;;;3.97;99.26;99244.12;106068;1296;71402;-71
2022/12/21 10:56:06;;;;;;;26.30;12.20;;;;;;;3.96;99.54;99245.77;106058;1289;60430;-70
2022/12/21 10:58:59;;;;;;;27.10;12.90;;;;;;;3.99;99.53;99246.45;106076;1289;60045;-70
2022/12/21 11:01:49;;;;;;;26.70;13.60;;;;;;;4.00;99.53;99246.23;106076;1281;71926;-69
2022/12/21 11:04:37;;;;;;;24.00;11.10;;;;;;;4.01;99.53;99246.85;106113;1289;66511;-70
2022/12/21 11:07:29;;;;;;;27.40;12.60;;;;;;;4.04;99.76;99244.25;105957;1298;72829;-70
2022/12/21 11:10:37;;;;;;;25.20;12.30;;;;;;;4.08;99.64;99240.27;106106;1289;57593;-71
2022/12/21 11:13:42;;;;;;;23.70;10.80;;;;;;;4.14;99.89;99246.27;106066;1288;61867;-71
2022/12/21 11:16:31;;;;;;;27.30;13.50;;;;;;;4.14;99.68;99241.13;106092;1288;72744;-70
2022/12/21 11:19:22;;;;;;;26.50;11.90;;;;;;;4.19;99.78;99240.30;105962;1289;66372;-70
2022/12/21 11:22:15;;;;;;;20.10;8.80;;;;;;;4.22;99.88;99232.33;106065;1287;71034;-71
2022/12/21 11:25:28;;;;;;;26.70;12.20;;;;;;;4.22;99.81;99226.52;106020;1289;57963;-69
2022/12/21 11:28:24;;;;;;;27.60;12.80;;;;;;;4.23;99.93;99223.69;105964;1292;61204;-72
2022/12/21 11:31:12;;;;;;;24.20;11.30;;;;;;;4.20;100.00;99228.65;105953;1291;74125;-71
2022/12/21 11:34:01;;;;;;;22.70;10.40;;;;;;;4.20;100.00;99226.81;106068;1289;67579;-72
2022/12/21 11:37:00;;;;;;;28.80;12.70;;;;;;;4.22;100.00;99225.52;105954;1289;72703;-70
2022/12/21 11:40:07;;;;;;;26.50;11.80;;;;;;;4.24;100.00;99220.60;105969;1292;60486;-70
2022/12/21 11:43:14;;;;;;;25.40;11.30;;;;;;;4.26;100.00;99214.73;106038;1289;58134;-70
2022/12/21 11:46:16;;;;;;;23.70;11.20;;;;;;;4.30;100.00;99219.73;106109;1290;71488;-70
2022/12/21 11:50:02;;;;;;;28.20;12.20;;;;;;;4.33;100.00;99220.96;106065;1288;69293;-72
2022/12/21 11:53:26;;;;;;;27.40;12.00;;;;;;;4.34;100.00;99219.98;105955;1289;72708;-69
2022/12/21 11:56:35;;;;;;;22.70;11.00;;;;;;;4.34;100.00;99220.33;106068;1289;59328;-71
2022/12/21 11:59:43;;;;;;;23.80;12.10;;;;;;;4.35;100.00;99218.15;105979;1287;60094;-71
2022/12/21 12:02:56;;;;;;;29.80;12.90;;;;;;;4.40;100.00;99213.66;106109;1281;72253;-71
2022/12/21 12:06:46;;;;;;;25.80;11.10;;;;;;;4.49;100.00;99206.38;106073;1289;67648;-70
2022/12/21 12:10:00;;;;;;;24.60;11.30;;;;;;;4.61;99.99;99206.79;106018;1286;73193;-70
2022/12/21 12:13:47;;;;;;;25.00;11.70;;;;;;;4.72;99.68;99203.25;106033;1289;58129;-70
2022/12/21 12:17:02;;;;;;;26.70;11.50;;;;;;;4.83;99.64;99206.42;105522;1301;60562;-71
2022/12/21 12:20:26;;;;;;;22.50;9.20;;;;;;;4.88;99.03;99205.56;105541;1293;74021;-71
2022/12/21 12:23:41;;;;;;;26.60;11.60;;;;;;;4.79;98.39;99204.02;105489;1297;66216;-70
2022/12/21 12:26:35;;;;;;;27.20;12.40;;;;;;;4.83;98.82;99214.29;105433;1296;72679;-70
2022/12/21 12:29:56;;;;;;;28.40;12.40;;;;;;;4.86;98.40;99224.10;105451;1297;57344;-72
2022/12/21 12:33:49;;;;;;;25.60;12.20;;;;;;;4.89;98.74;99216.87;105539;1297;58914;-71
2022/12/21 12:36:46;;;;;;;26.20;11.70;;;;;;;5.00;98.15;99214.21;105427;1297;73914;-70
2022/12/21 12:40:00;;;;;;;23.80;10.10;;;;;;;5.05;97.92;99199.83;105532;1304;67041;-72
2022/12/21 12:43:14;;;;;;;23.00;10.60;;;;;;;5.02;97.35;99194.90;105500;1297;72796;-71
2022/12/21 12:46:14;;;;;;;25.60;12.20;;;;;;;4.89;97.71;99201.07;105396;1296;57929;-70
2022/12/21 12:49:11;;;;;;;28.10;12.70;;;;;;;4.85;97.92;99205.02;105483;1297;58744;-71
2022/12/21 12:52:31;;;;;;;27.60;13.30;;;;;;;4.84;98.50;99207.52;105978;1292;72960;-70
2022/12/21 12:55:47;;;;;;;26.10;12.90;;;;;;;4.84;98.14;99217.75;105909;1294;68981;-71
2022/12/21 12:59:22;;;;;;;25.90;12.50;;;;;;;4.85;98.35;99214.55;105919;1290;72727;-72
2022/12/21 13:02:53;;;;;;;29.30;13.60;;;;;;;4.82;98.25;99222.98;105960;1290;57714;-71
2022/12/21 13:06:23;;;;;;;23.60;10.50;;;;;;;4.79;98.41;99225.96;106122;1289;58868;-70
2022/12/21 13:09:43;;;;;;;29.50;14.20;;;;;;;4.74;98.56;99225.96;105351;1296;73938;-71
2022/12/21 13:13:16;;;;;;;28.70;13.10;;;;;;;4.70;98.17;99222.75;105451;1292;66469;-72
2022/12/21 13:17:00;;;;;;;26.20;12.30;;;;;;;4.67;98.67;99220.61;105353;1298;72036;-71
2022/12/21 13:19:52;;;;;;;26.50;12.70;;;;;;;4.64;98.58;99224.36;104784;1311;57956;-70
2022/12/21 13:22:41;;;;;;;23.10;12.00;;;;;;;4.63;99.01;99222.52;104876;1305;60105;-71
2022/12/21 13:25:56;;;;;;;25.30;11.30;;;;;;;4.59;98.98;99221.52;104947;1303;73014;-71
2022/12/21 13:29:09;;;;;;;25.90;10.70;;;;;;;4.53;99.14;99218.42;104945;1305;66456;-69
2022/12/21 13:32:22;;;;;;;26.80;11.90;;;;;;;4.43;99.66;99210.43;104904;1310;72053;-70
2022/12/21 13:36:08;;;;;;;27.00;12.30;;;;;;;4.40;99.88;99211.49;104811;1312;57216;-71
2022/12/21 13:39:30;;;;;;;29.70;13.20;;;;;;;4.40;99.85;99211.70;104401;1315;59074;-70
2022/12/21 13:43:15;;;;;;;24.40;11.60;;;;;;;4.42;99.98;99216.27;104410;1309;73025;-69
2022/12/21 13:46:12;;;;;;;25.90;11.90;;;;;;;4.39;99.88;99223.88;103955;1309;67732;-70
2022/12/21 13:49:24;;;;;;;26.10;11.80;;;;;;;4.34;99.78;99220.68;104214;1312;71706;-71